sensor_id;sensor_type;location;lat;lon;timestamp;P1;durP1;ratioP1;P2;durP2;ratioP2
15039;SDS011;7617;47.366;8.558;2024-02-26T00:00:24;3.00;;;2.53;;
15039;SDS011;7617;47.366;8.558;2024-02-26T00:02:52;2.80;;;2.40;;
15039;SDS011;7617;47.366;8.558;2024-02-26T00:05:22;4.43;;;2.47;;
15039;SDS011;7617;47.366;8.558;2024-02-26T00:07:51;2.83;;;2.55;;
15039;SDS011;7617;47.366;8.558;2024-02-26T00:10:19;2.53;;;2.20;;
15039;SDS011;7617;47.366;8.558;2024-02-26T00:12:47;3.25;;;2.05;;
15039;SDS011;7617;47.366;8.558;2024-02-26T00:15:16;2.80;;;2.30;;
15039;SDS011;7617;47.366;8.558;2024-02-26T00:17:44;2.33;;;2.10;;
15039;SDS011;7617;47.366;8.558;2024-02-26T00:20:13;2.75;;;1.92;;
15039;SDS011;7617;47.366;8.558;2024-02-26T00:22:42;3.38;;;1.70;;
15039;SDS011;7617;47.366;8.558;2024-02-26T00:25:11;1.65;;;1.55;;
15039;SDS011;7617;47.366;8.558;2024-02-26T00:27:39;2.15;;;1.67;;
15039;SDS011;7617;47.366;8.558;2024-02-26T00:30:08;2.30;;;1.95;;
15039;SDS011;7617;47.366;8.558;2024-02-26T00:32:39;1.85;;;1.60;;
15039;SDS011;7617;47.366;8.558;2024-02-26T00:35:07;2.30;;;1.67;;
15039;SDS011;7617;47.366;8.558;2024-02-26T00:37:37;2.78;;;1.90;;
15039;SDS011;7617;47.366;8.558;2024-02-26T00:40:07;3.97;;;2.35;;
15039;SDS011;7617;47.366;8.558;2024-02-26T00:42:36;3.63;;;2.30;;
15039;SDS011;7617;47.366;8.558;2024-02-26T00:45:05;3.08;;;2.10;;
15039;SDS011;7617;47.366;8.558;2024-02-26T00:47:34;3.78;;;2.42;;
15039;SDS011;7617;47.366;8.558;2024-02-26T00:50:02;3.00;;;2.30;;
15039;SDS011;7617;47.366;8.558;2024-02-26T00:52:31;2.47;;;2.20;;
15039;SDS011;7617;47.366;8.558;2024-02-26T00:55:01;2.60;;;1.90;;
15039;SDS011;7617;47.366;8.558;2024-02-26T00:57:30;2.47;;;1.80;;
15039;SDS011;7617;47.366;8.558;2024-02-26T00:59:59;1.83;;;1.70;;
15039;SDS011;7617;47.366;8.558;2024-02-26T01:02:27;1.80;;;1.70;;
15039;SDS011;7617;47.366;8.558;2024-02-26T01:04:55;2.38;;;1.60;;
15039;SDS011;7617;47.366;8.558;2024-02-26T01:07:24;1.75;;;1.65;;
15039;SDS011;7617;47.366;8.558;2024-02-26T01:09:55;2.17;;;1.77;;
15039;SDS011;7617;47.366;8.558;2024-02-26T01:12:24;3.25;;;1.83;;
15039;SDS011;7617;47.366;8.558;2024-02-26T01:14:54;2.38;;;1.85;;
15039;SDS011;7617;47.366;8.558;2024-02-26T01:17:23;3.50;;;1.75;;
15039;SDS011;7617;47.366;8.558;2024-02-26T01:19:51;2.83;;;1.65;;
15039;SDS011;7617;47.366;8.558;2024-02-26T01:22:23;3.20;;;2.00;;
15039;SDS011;7617;47.366;8.558;2024-02-26T01:24:51;1.83;;;1.60;;
15039;SDS011;7617;47.366;8.558;2024-02-26T01:27:20;3.30;;;1.92;;
15039;SDS011;7617;47.366;8.558;2024-02-26T01:29:54;2.53;;;1.63;;
15039;SDS011;7617;47.366;8.558;2024-02-26T01:32:25;2.25;;;1.70;;
15039;SDS011;7617;47.366;8.558;2024-02-26T01:34:53;2.90;;;1.80;;
15039;SDS011;7617;47.366;8.558;2024-02-26T01:37:21;3.15;;;1.40;;
15039;SDS011;7617;47.366;8.558;2024-02-26T01:39:50;2.25;;;1.45;;
15039;SDS011;7617;47.366;8.558;2024-02-26T01:42:18;2.15;;;1.42;;
15039;SDS011;7617;47.366;8.558;2024-02-26T01:44:46;1.90;;;1.60;;
15039;SDS011;7617;47.366;8.558;2024-02-26T01:47:16;1.92;;;1.48;;
15039;SDS011;7617;47.366;8.558;2024-02-26T01:49:44;1.70;;;1.50;;
15039;SDS011;7617;47.366;8.558;2024-02-26T01:52:13;1.40;;;1.25;;
15039;SDS011;7617;47.366;8.558;2024-02-26T01:54:42;1.73;;;1.33;;
15039;SDS011;7617;47.366;8.558;2024-02-26T01:57:12;1.50;;;1.20;;
15039;SDS011;7617;47.366;8.558;2024-02-26T01:59:41;1.75;;;1.45;;
15039;SDS011;7617;47.366;8.558;2024-02-26T02:02:10;1.27;;;1.10;;
15039;SDS011;7617;47.366;8.558;2024-02-26T02:04:41;1.85;;;1.27;;
15039;SDS011;7617;47.366;8.558;2024-02-26T02:07:10;2.42;;;1.20;;
15039;SDS011;7617;47.366;8.558;2024-02-26T02:09:38;1.60;;;1.17;;
15039;SDS011;7617;47.366;8.558;2024-02-26T02:12:06;1.50;;;1.10;;
15039;SDS011;7617;47.366;8.558;2024-02-26T02:14:34;1.50;;;1.20;;
15039;SDS011;7617;47.366;8.558;2024-02-26T02:17:02;1.50;;;1.30;;
15039;SDS011;7617;47.366;8.558;2024-02-26T02:19:31;2.73;;;1.23;;
15039;SDS011;7617;47.366;8.558;2024-02-26T02:22:00;1.60;;;1.20;;
15039;SDS011;7617;47.366;8.558;2024-02-26T02:24:28;1.40;;;1.20;;
15039;SDS011;7617;47.366;8.558;2024-02-26T02:26:57;1.80;;;1.20;;
15039;SDS011;7617;47.366;8.558;2024-02-26T02:29:25;1.37;;;0.90;;
15039;SDS011;7617;47.366;8.558;2024-02-26T02:31:55;1.60;;;1.10;;
15039;SDS011;7617;47.366;8.558;2024-02-26T02:34:25;1.73;;;1.13;;
15039;SDS011;7617;47.366;8.558;2024-02-26T02:36:54;1.27;;;1.17;;
15039;SDS011;7617;47.366;8.558;2024-02-26T02:39:23;1.30;;;1.20;;
15039;SDS011;7617;47.366;8.558;2024-02-26T02:41:52;1.25;;;0.80;;
15039;SDS011;7617;47.366;8.558;2024-02-26T02:44:20;2.50;;;1.10;;
15039;SDS011;7617;47.366;8.558;2024-02-26T02:46:48;0.93;;;0.90;;
15039;SDS011;7617;47.366;8.558;2024-02-26T02:49:18;1.20;;;1.10;;
15039;SDS011;7617;47.366;8.558;2024-02-26T02:51:47;1.77;;;0.80;;
15039;SDS011;7617;47.366;8.558;2024-02-26T02:54:15;1.15;;;0.82;;
15039;SDS011;7617;47.366;8.558;2024-02-26T02:56:45;1.20;;;1.00;;
15039;SDS011;7617;47.366;8.558;2024-02-26T02:59:13;1.17;;;1.08;;
15039;SDS011;7617;47.366;8.558;2024-02-26T03:01:42;1.60;;;1.20;;
15039;SDS011;7617;47.366;8.558;2024-02-26T03:04:10;1.00;;;0.90;;
15039;SDS011;7617;47.366;8.558;2024-02-26T03:06:38;1.27;;;1.10;;
15039;SDS011;7617;47.366;8.558;2024-02-26T03:09:07;1.90;;;1.07;;
15039;SDS011;7617;47.366;8.558;2024-02-26T03:11:35;1.07;;;0.90;;
15039;SDS011;7617;47.366;8.558;2024-02-26T03:14:05;1.27;;;1.17;;
15039;SDS011;7617;47.366;8.558;2024-02-26T03:16:33;1.23;;;1.10;;
15039;SDS011;7617;47.366;8.558;2024-02-26T03:19:01;1.58;;;1.20;;
15039;SDS011;7617;47.366;8.558;2024-02-26T03:21:30;1.70;;;1.37;;
15039;SDS011;7617;47.366;8.558;2024-02-26T03:24:01;2.20;;;1.05;;
15039;SDS011;7617;47.366;8.558;2024-02-26T03:26:29;1.30;;;1.10;;
15039;SDS011;7617;47.366;8.558;2024-02-26T03:28:58;1.10;;;1.00;;
15039;SDS011;7617;47.366;8.558;2024-02-26T03:31:29;1.53;;;1.20;;
15039;SDS011;7617;47.366;8.558;2024-02-26T03:33:58;1.27;;;1.17;;
15039;SDS011;7617;47.366;8.558;2024-02-26T03:36:26;4.70;;;1.20;;
15039;SDS011;7617;47.366;8.558;2024-02-26T03:38:54;2.15;;;1.52;;
15039;SDS011;7617;47.366;8.558;2024-02-26T03:41:22;3.03;;;1.30;;
15039;SDS011;7617;47.366;8.558;2024-02-26T03:43:50;1.57;;;1.10;;
15039;SDS011;7617;47.366;8.558;2024-02-26T03:46:19;1.77;;;1.30;;
15039;SDS011;7617;47.366;8.558;2024-02-26T03:48:48;2.72;;;1.20;;
15039;SDS011;7617;47.366;8.558;2024-02-26T03:51:17;2.20;;;1.40;;
15039;SDS011;7617;47.366;8.558;2024-02-26T03:53:45;3.20;;;1.58;;
15039;SDS011;7617;47.366;8.558;2024-02-26T03:56:13;1.83;;;1.23;;
15039;SDS011;7617;47.366;8.558;2024-02-26T03:58:41;3.47;;;1.30;;
15039;SDS011;7617;47.366;8.558;2024-02-26T04:01:09;1.67;;;1.23;;
15039;SDS011;7617;47.366;8.558;2024-02-26T04:03:38;1.75;;;1.30;;
15039;SDS011;7617;47.366;8.558;2024-02-26T04:06:09;2.15;;;1.30;;
15039;SDS011;7617;47.366;8.558;2024-02-26T04:08:38;2.03;;;1.20;;
15039;SDS011;7617;47.366;8.558;2024-02-26T04:11:06;1.55;;;1.25;;
15039;SDS011;7617;47.366;8.558;2024-02-26T04:13:35;1.90;;;1.00;;
15039;SDS011;7617;47.366;8.558;2024-02-26T04:16:04;1.58;;;1.20;;
15039;SDS011;7617;47.366;8.558;2024-02-26T04:18:36;1.30;;;1.20;;
15039;SDS011;7617;47.366;8.558;2024-02-26T04:21:05;1.27;;;1.10;;
15039;SDS011;7617;47.366;8.558;2024-02-26T04:23:35;1.98;;;1.35;;
15039;SDS011;7617;47.366;8.558;2024-02-26T04:26:04;1.55;;;1.30;;
15039;SDS011;7617;47.366;8.558;2024-02-26T04:28:32;1.83;;;1.20;;
15039;SDS011;7617;47.366;8.558;2024-02-26T04:31:00;1.52;;;1.33;;
15039;SDS011;7617;47.366;8.558;2024-02-26T04:33:33;1.63;;;1.38;;
15039;SDS011;7617;47.366;8.558;2024-02-26T04:36:02;1.95;;;1.20;;
15039;SDS011;7617;47.366;8.558;2024-02-26T04:38:31;2.45;;;1.20;;
15039;SDS011;7617;47.366;8.558;2024-02-26T04:41:01;1.40;;;1.27;;
15039;SDS011;7617;47.366;8.558;2024-02-26T04:43:29;1.85;;;1.50;;
15039;SDS011;7617;47.366;8.558;2024-02-26T04:45:58;1.58;;;1.27;;
15039;SDS011;7617;47.366;8.558;2024-02-26T04:48:27;1.40;;;1.30;;
15039;SDS011;7617;47.366;8.558;2024-02-26T04:50:56;1.60;;;1.50;;
15039;SDS011;7617;47.366;8.558;2024-02-26T04:53:24;1.30;;;1.20;;
15039;SDS011;7617;47.366;8.558;2024-02-26T04:55:52;1.63;;;1.20;;
15039;SDS011;7617;47.366;8.558;2024-02-26T04:58:21;0.80;;;0.80;;
15039;SDS011;7617;47.366;8.558;2024-02-26T05:00:50;2.03;;;1.10;;
15039;SDS011;7617;47.366;8.558;2024-02-26T05:03:19;1.13;;;0.90;;
15039;SDS011;7617;47.366;8.558;2024-02-26T05:05:47;0.83;;;0.70;;
15039;SDS011;7617;47.366;8.558;2024-02-26T05:08:16;1.00;;;0.90;;
15039;SDS011;7617;47.366;8.558;2024-02-26T05:10:44;0.83;;;0.70;;
15039;SDS011;7617;47.366;8.558;2024-02-26T05:13:13;1.15;;;0.88;;
15039;SDS011;7617;47.366;8.558;2024-02-26T05:15:43;1.87;;;0.90;;
15039;SDS011;7617;47.366;8.558;2024-02-26T05:18:15;1.95;;;0.80;;
15039;SDS011;7617;47.366;8.558;2024-02-26T05:20:44;0.75;;;0.73;;
15039;SDS011;7617;47.366;8.558;2024-02-26T05:23:13;1.35;;;0.90;;
15039;SDS011;7617;47.366;8.558;2024-02-26T05:25:40;2.10;;;0.77;;
15039;SDS011;7617;47.366;8.558;2024-02-26T05:28:09;0.80;;;0.80;;
15039;SDS011;7617;47.366;8.558;2024-02-26T05:30:37;0.97;;;0.80;;
15039;SDS011;7617;47.366;8.558;2024-02-26T05:33:08;1.33;;;0.90;;
15039;SDS011;7617;47.366;8.558;2024-02-26T05:35:41;1.37;;;0.90;;
15039;SDS011;7617;47.366;8.558;2024-02-26T05:38:09;2.33;;;1.20;;
15039;SDS011;7617;47.366;8.558;2024-02-26T05:40:38;1.30;;;0.93;;
15039;SDS011;7617;47.366;8.558;2024-02-26T05:43:06;1.00;;;0.90;;
15039;SDS011;7617;47.366;8.558;2024-02-26T05:45:34;1.30;;;1.00;;
15039;SDS011;7617;47.366;8.558;2024-02-26T05:48:03;1.23;;;1.07;;
15039;SDS011;7617;47.366;8.558;2024-02-26T05:50:34;2.10;;;0.90;;
15039;SDS011;7617;47.366;8.558;2024-02-26T05:53:02;0.80;;;0.80;;
15039;SDS011;7617;47.366;8.558;2024-02-26T05:55:31;1.33;;;0.83;;
15039;SDS011;7617;47.366;8.558;2024-02-26T05:57:59;1.70;;;1.17;;
15039;SDS011;7617;47.366;8.558;2024-02-26T06:00:27;1.27;;;1.10;;
15039;SDS011;7617;47.366;8.558;2024-02-26T06:02:56;1.17;;;0.88;;
15039;SDS011;7617;47.366;8.558;2024-02-26T06:05:24;4.10;;;1.10;;
15039;SDS011;7617;47.366;8.558;2024-02-26T06:07:54;2.65;;;1.80;;
15039;SDS011;7617;47.366;8.558;2024-02-26T06:10:22;1.10;;;1.00;;
15039;SDS011;7617;47.366;8.558;2024-02-26T06:12:50;1.70;;;1.30;;
15039;SDS011;7617;47.366;8.558;2024-02-26T06:15:19;1.80;;;1.10;;
15039;SDS011;7617;47.366;8.558;2024-02-26T06:17:47;1.23;;;1.10;;
15039;SDS011;7617;47.366;8.558;2024-02-26T06:20:18;2.17;;;1.00;;
15039;SDS011;7617;47.366;8.558;2024-02-26T06:22:46;1.47;;;0.97;;
15039;SDS011;7617;47.366;8.558;2024-02-26T06:25:17;1.83;;;1.10;;
15039;SDS011;7617;47.366;8.558;2024-02-26T06:27:45;2.22;;;1.20;;
15039;SDS011;7617;47.366;8.558;2024-02-26T06:30:14;1.87;;;0.90;;
15039;SDS011;7617;47.366;8.558;2024-02-26T06:32:44;5.07;;;1.27;;
15039;SDS011;7617;47.366;8.558;2024-02-26T06:35:13;2.10;;;1.00;;
15039;SDS011;7617;47.366;8.558;2024-02-26T06:37:41;0.80;;;0.73;;
15039;SDS011;7617;47.366;8.558;2024-02-26T06:40:10;4.33;;;2.33;;
15039;SDS011;7617;47.366;8.558;2024-02-26T06:42:41;1.87;;;1.20;;
15039;SDS011;7617;47.366;8.558;2024-02-26T06:45:14;3.50;;;1.30;;
15039;SDS011;7617;47.366;8.558;2024-02-26T06:47:42;1.50;;;1.30;;
15039;SDS011;7617;47.366;8.558;2024-02-26T06:50:11;8.43;;;1.85;;
15039;SDS011;7617;47.366;8.558;2024-02-26T06:52:39;1.92;;;1.40;;
15039;SDS011;7617;47.366;8.558;2024-02-26T06:55:08;2.03;;;1.40;;
15039;SDS011;7617;47.366;8.558;2024-02-26T06:57:36;1.48;;;1.20;;
15039;SDS011;7617;47.366;8.558;2024-02-26T07:00:06;1.90;;;1.30;;
15039;SDS011;7617;47.366;8.558;2024-02-26T07:02:35;6.00;;;1.25;;
15039;SDS011;7617;47.366;8.558;2024-02-26T07:05:06;2.10;;;1.20;;
15039;SDS011;7617;47.366;8.558;2024-02-26T07:07:34;3.92;;;1.70;;
15039;SDS011;7617;47.366;8.558;2024-02-26T07:10:02;3.97;;;1.45;;
15039;SDS011;7617;47.366;8.558;2024-02-26T07:12:32;3.38;;;1.58;;
15039;SDS011;7617;47.366;8.558;2024-02-26T07:15:00;3.78;;;2.10;;
15039;SDS011;7617;47.366;8.558;2024-02-26T07:17:30;4.10;;;2.28;;
15039;SDS011;7617;47.366;8.558;2024-02-26T07:20:00;2.28;;;1.63;;
15039;SDS011;7617;47.366;8.558;2024-02-26T07:22:34;3.10;;;2.10;;
15039;SDS011;7617;47.366;8.558;2024-02-26T07:25:02;3.67;;;1.80;;
15039;SDS011;7617;47.366;8.558;2024-02-26T07:27:30;3.30;;;1.87;;
15039;SDS011;7617;47.366;8.558;2024-02-26T07:29:58;3.22;;;2.08;;
15039;SDS011;7617;47.366;8.558;2024-02-26T07:32:26;2.83;;;2.03;;
15039;SDS011;7617;47.366;8.558;2024-02-26T07:34:56;3.53;;;2.10;;
15039;SDS011;7617;47.366;8.558;2024-02-26T07:37:24;3.45;;;2.15;;
15039;SDS011;7617;47.366;8.558;2024-02-26T07:39:52;6.60;;;2.30;;
15039;SDS011;7617;47.366;8.558;2024-02-26T07:42:21;4.80;;;1.77;;
15039;SDS011;7617;47.366;8.558;2024-02-26T07:44:49;3.33;;;1.65;;
15039;SDS011;7617;47.366;8.558;2024-02-26T07:47:19;2.63;;;1.85;;
15039;SDS011;7617;47.366;8.558;2024-02-26T07:49:47;2.50;;;1.58;;
15039;SDS011;7617;47.366;8.558;2024-02-26T07:52:16;2.83;;;1.60;;
15039;SDS011;7617;47.366;8.558;2024-02-26T07:54:44;3.60;;;1.73;;
15039;SDS011;7617;47.366;8.558;2024-02-26T07:57:12;1.88;;;1.73;;
15039;SDS011;7617;47.366;8.558;2024-02-26T07:59:43;2.80;;;1.80;;
15039;SDS011;7617;47.366;8.558;2024-02-26T08:02:16;1.85;;;1.55;;
15039;SDS011;7617;47.366;8.558;2024-02-26T08:04:44;3.40;;;1.75;;
15039;SDS011;7617;47.366;8.558;2024-02-26T08:07:12;2.58;;;1.67;;
15039;SDS011;7617;47.366;8.558;2024-02-26T08:09:43;2.05;;;1.52;;
15039;SDS011;7617;47.366;8.558;2024-02-26T08:12:12;2.58;;;1.88;;
15039;SDS011;7617;47.366;8.558;2024-02-26T08:14:40;2.80;;;1.70;;
15039;SDS011;7617;47.366;8.558;2024-02-26T08:17:09;3.33;;;1.52;;
15039;SDS011;7617;47.366;8.558;2024-02-26T08:19:37;1.55;;;1.45;;
15039;SDS011;7617;47.366;8.558;2024-02-26T08:22:05;2.53;;;1.77;;
15039;SDS011;7617;47.366;8.558;2024-02-26T08:24:33;2.15;;;1.95;;
15039;SDS011;7617;47.366;8.558;2024-02-26T08:27:03;2.85;;;1.98;;
15039;SDS011;7617;47.366;8.558;2024-02-26T08:29:31;1.73;;;1.63;;
15039;SDS011;7617;47.366;8.558;2024-02-26T08:31:59;3.38;;;1.60;;
15039;SDS011;7617;47.366;8.558;2024-02-26T08:34:28;3.83;;;2.30;;
15039;SDS011;7617;47.366;8.558;2024-02-26T08:36:56;2.58;;;2.28;;
15039;SDS011;7617;47.366;8.558;2024-02-26T08:39:24;2.33;;;2.13;;
15039;SDS011;7617;47.366;8.558;2024-02-26T08:41:53;4.60;;;2.20;;
15039;SDS011;7617;47.366;8.558;2024-02-26T08:44:22;2.40;;;1.85;;
15039;SDS011;7617;47.366;8.558;2024-02-26T08:46:50;2.25;;;2.08;;
15039;SDS011;7617;47.366;8.558;2024-02-26T08:49:18;3.72;;;2.25;;
15039;SDS011;7617;47.366;8.558;2024-02-26T08:51:49;2.67;;;2.40;;
15039;SDS011;7617;47.366;8.558;2024-02-26T08:54:17;2.47;;;2.28;;
15039;SDS011;7617;47.366;8.558;2024-02-26T08:56:46;4.40;;;2.83;;
15039;SDS011;7617;47.366;8.558;2024-02-26T08:59:15;2.70;;;2.08;;
15039;SDS011;7617;47.366;8.558;2024-02-26T09:01:50;2.88;;;2.00;;
15039;SDS011;7617;47.366;8.558;2024-02-26T09:04:18;2.95;;;2.03;;
15039;SDS011;7617;47.366;8.558;2024-02-26T09:06:46;6.35;;;2.35;;
15039;SDS011;7617;47.366;8.558;2024-02-26T09:09:15;3.90;;;2.20;;
15039;SDS011;7617;47.366;8.558;2024-02-26T09:11:43;7.43;;;2.28;;
15039;SDS011;7617;47.366;8.558;2024-02-26T09:14:11;13.38;;;2.45;;
15039;SDS011;7617;47.366;8.558;2024-02-26T09:16:39;5.97;;;2.00;;
15039;SDS011;7617;47.366;8.558;2024-02-26T09:19:09;1.63;;;1.17;;
15039;SDS011;7617;47.366;8.558;2024-02-26T09:21:41;2.38;;;1.45;;
15039;SDS011;7617;47.366;8.558;2024-02-26T09:24:10;2.22;;;1.50;;
15039;SDS011;7617;47.366;8.558;2024-02-26T09:26:39;2.15;;;1.40;;
15039;SDS011;7617;47.366;8.558;2024-02-26T09:29:07;1.30;;;1.20;;
15039;SDS011;7617;47.366;8.558;2024-02-26T09:31:35;3.40;;;1.70;;
15039;SDS011;7617;47.366;8.558;2024-02-26T09:34:03;2.15;;;1.55;;
15039;SDS011;7617;47.366;8.558;2024-02-26T09:36:33;1.63;;;1.50;;
15039;SDS011;7617;47.366;8.558;2024-02-26T09:39:01;2.47;;;1.38;;
15039;SDS011;7617;47.366;8.558;2024-02-26T09:41:30;1.77;;;1.50;;
15039;SDS011;7617;47.366;8.558;2024-02-26T09:43:58;3.00;;;1.30;;
15039;SDS011;7617;47.366;8.558;2024-02-26T09:46:30;2.38;;;1.38;;
15039;SDS011;7617;47.366;8.558;2024-02-26T09:48:58;1.42;;;1.30;;
15039;SDS011;7617;47.366;8.558;2024-02-26T09:51:27;1.77;;;1.42;;
15039;SDS011;7617;47.366;8.558;2024-02-26T09:53:57;2.15;;;1.40;;
15039;SDS011;7617;47.366;8.558;2024-02-26T09:56:28;3.95;;;1.40;;
15039;SDS011;7617;47.366;8.558;2024-02-26T09:58:58;1.33;;;1.20;;
15039;SDS011;7617;47.366;8.558;2024-02-26T10:01:27;1.45;;;1.35;;
15039;SDS011;7617;47.366;8.558;2024-02-26T10:03:58;1.40;;;1.30;;
15039;SDS011;7617;47.366;8.558;2024-02-26T10:06:27;1.50;;;1.30;;
15039;SDS011;7617;47.366;8.558;2024-02-26T10:08:57;2.13;;;1.70;;
15039;SDS011;7617;47.366;8.558;2024-02-26T10:11:26;4.07;;;1.67;;
15039;SDS011;7617;47.366;8.558;2024-02-26T10:13:55;4.55;;;1.83;;
15039;SDS011;7617;47.366;8.558;2024-02-26T10:16:23;1.70;;;1.30;;
15039;SDS011;7617;47.366;8.558;2024-02-26T10:18:52;1.75;;;1.08;;
15039;SDS011;7617;47.366;8.558;2024-02-26T10:21:25;1.60;;;1.20;;
15039;SDS011;7617;47.366;8.558;2024-02-26T10:23:54;1.52;;;1.20;;
15039;SDS011;7617;47.366;8.558;2024-02-26T10:26:23;1.20;;;1.10;;
15039;SDS011;7617;47.366;8.558;2024-02-26T10:28:52;2.53;;;1.45;;
15039;SDS011;7617;47.366;8.558;2024-02-26T10:31:21;2.00;;;1.17;;
15039;SDS011;7617;47.366;8.558;2024-02-26T10:33:50;2.42;;;1.30;;
15039;SDS011;7617;47.366;8.558;2024-02-26T10:36:25;1.60;;;1.10;;
15039;SDS011;7617;47.366;8.558;2024-02-26T10:39:11;2.55;;;1.17;;
15039;SDS011;7617;47.366;8.558;2024-02-26T10:41:41;2.85;;;1.30;;
15039;SDS011;7617;47.366;8.558;2024-02-26T10:44:10;4.18;;;1.70;;
15039;SDS011;7617;47.366;8.558;2024-02-26T10:46:44;1.55;;;1.35;;
15039;SDS011;7617;47.366;8.558;2024-02-26T10:49:14;1.35;;;1.15;;
15039;SDS011;7617;47.366;8.558;2024-02-26T10:51:47;1.60;;;0.90;;
15039;SDS011;7617;47.366;8.558;2024-02-26T10:54:21;3.25;;;1.15;;
15039;SDS011;7617;47.366;8.558;2024-02-26T10:56:52;1.63;;;1.10;;
15039;SDS011;7617;47.366;8.558;2024-02-26T10:59:22;1.85;;;1.20;;
15039;SDS011;7617;47.366;8.558;2024-02-26T11:01:51;1.77;;;1.00;;
15039;SDS011;7617;47.366;8.558;2024-02-26T11:04:19;1.65;;;1.50;;
15039;SDS011;7617;47.366;8.558;2024-02-26T11:06:49;3.35;;;1.30;;
15039;SDS011;7617;47.366;8.558;2024-02-26T11:09:18;3.10;;;1.80;;
15039;SDS011;7617;47.366;8.558;2024-02-26T11:11:47;2.45;;;1.75;;
15039;SDS011;7617;47.366;8.558;2024-02-26T11:14:22;2.70;;;2.10;;
15039;SDS011;7617;47.366;8.558;2024-02-26T11:16:52;2.88;;;2.20;;
15039;SDS011;7617;47.366;8.558;2024-02-26T11:19:23;4.18;;;2.28;;
15039;SDS011;7617;47.366;8.558;2024-02-26T11:21:54;3.65;;;2.20;;
15039;SDS011;7617;47.366;8.558;2024-02-26T11:24:25;2.45;;;2.22;;
15039;SDS011;7617;47.366;8.558;2024-02-26T11:26:55;4.22;;;2.45;;
15039;SDS011;7617;47.366;8.558;2024-02-26T11:29:28;2.95;;;2.60;;
15039;SDS011;7617;47.366;8.558;2024-02-26T11:32:02;2.55;;;2.17;;
15039;SDS011;7617;47.366;8.558;2024-02-26T11:34:30;2.33;;;2.13;;
15039;SDS011;7617;47.366;8.558;2024-02-26T11:37:08;3.88;;;2.35;;
15039;SDS011;7617;47.366;8.558;2024-02-26T11:39:39;3.03;;;1.92;;
15039;SDS011;7617;47.366;8.558;2024-02-26T11:42:08;2.53;;;1.90;;
15039;SDS011;7617;47.366;8.558;2024-02-26T11:44:38;2.28;;;2.08;;
15039;SDS011;7617;47.366;8.558;2024-02-26T11:47:11;2.83;;;1.90;;
15039;SDS011;7617;47.366;8.558;2024-02-26T11:49:40;3.75;;;2.72;;
15039;SDS011;7617;47.366;8.558;2024-02-26T11:52:08;3.92;;;2.13;;
15039;SDS011;7617;47.366;8.558;2024-02-26T11:54:43;3.03;;;2.20;;
15039;SDS011;7617;47.366;8.558;2024-02-26T11:57:22;4.95;;;2.00;;
15039;SDS011;7617;47.366;8.558;2024-02-26T11:59:54;3.75;;;1.90;;
15039;SDS011;7617;47.366;8.558;2024-02-26T12:02:39;2.33;;;1.80;;
15039;SDS011;7617;47.366;8.558;2024-02-26T12:05:08;2.45;;;1.83;;
15039;SDS011;7617;47.366;8.558;2024-02-26T12:07:40;3.42;;;2.30;;
15039;SDS011;7617;47.366;8.558;2024-02-26T12:10:13;3.85;;;1.80;;
15039;SDS011;7617;47.366;8.558;2024-02-26T12:12:43;2.72;;;1.67;;
15039;SDS011;7617;47.366;8.558;2024-02-26T12:15:13;1.60;;;1.50;;
15039;SDS011;7617;47.366;8.558;2024-02-26T12:17:46;5.53;;;1.70;;
15039;SDS011;7617;47.366;8.558;2024-02-26T12:20:16;2.90;;;1.90;;
15039;SDS011;7617;47.366;8.558;2024-02-26T12:22:46;2.60;;;1.60;;
15039;SDS011;7617;47.366;8.558;2024-02-26T12:25:15;1.70;;;1.60;;
15039;SDS011;7617;47.366;8.558;2024-02-26T12:27:43;3.70;;;1.60;;
15039;SDS011;7617;47.366;8.558;2024-02-26T12:30:13;3.38;;;1.80;;
15039;SDS011;7617;47.366;8.558;2024-02-26T12:32:41;2.38;;;1.70;;
15039;SDS011;7617;47.366;8.558;2024-02-26T12:35:10;3.17;;;2.00;;
15039;SDS011;7617;47.366;8.558;2024-02-26T12:37:39;2.75;;;1.70;;
15039;SDS011;7617;47.366;8.558;2024-02-26T12:40:10;2.42;;;1.70;;
15039;SDS011;7617;47.366;8.558;2024-02-26T12:42:39;1.70;;;1.60;;
15039;SDS011;7617;47.366;8.558;2024-02-26T12:45:08;1.85;;;1.30;;
15039;SDS011;7617;47.366;8.558;2024-02-26T12:47:39;1.80;;;1.30;;
15039;SDS011;7617;47.366;8.558;2024-02-26T12:50:09;4.05;;;1.90;;
15039;SDS011;7617;47.366;8.558;2024-02-26T12:52:38;5.68;;;1.77;;
15039;SDS011;7617;47.366;8.558;2024-02-26T12:55:07;4.30;;;2.00;;
15039;SDS011;7617;47.366;8.558;2024-02-26T12:57:37;2.80;;;1.90;;
15039;SDS011;7617;47.366;8.558;2024-02-26T13:00:07;2.00;;;1.73;;
15039;SDS011;7617;47.366;8.558;2024-02-26T13:02:39;2.33;;;1.65;;
15039;SDS011;7617;47.366;8.558;2024-02-26T13:05:09;2.40;;;1.70;;
15039;SDS011;7617;47.366;8.558;2024-02-26T13:07:40;4.35;;;1.50;;
15039;SDS011;7617;47.366;8.558;2024-02-26T13:10:09;4.63;;;2.00;;
15039;SDS011;7617;47.366;8.558;2024-02-26T13:12:42;3.05;;;1.90;;
15039;SDS011;7617;47.366;8.558;2024-02-26T13:15:14;2.05;;;1.65;;
15039;SDS011;7617;47.366;8.558;2024-02-26T13:17:44;3.15;;;2.10;;
15039;SDS011;7617;47.366;8.558;2024-02-26T13:20:12;2.42;;;2.15;;
15039;SDS011;7617;47.366;8.558;2024-02-26T13:22:41;1.63;;;1.50;;
15039;SDS011;7617;47.366;8.558;2024-02-26T13:25:10;2.88;;;1.60;;
15039;SDS011;7617;47.366;8.558;2024-02-26T13:27:38;2.45;;;1.88;;
15039;SDS011;7617;47.366;8.558;2024-02-26T13:30:08;2.25;;;1.77;;
15039;SDS011;7617;47.366;8.558;2024-02-26T13:32:39;2.08;;;1.60;;
15039;SDS011;7617;47.366;8.558;2024-02-26T13:35:10;3.95;;;1.50;;
15039;SDS011;7617;47.366;8.558;2024-02-26T13:37:40;1.83;;;1.40;;
15039;SDS011;7617;47.366;8.558;2024-02-26T13:40:09;1.88;;;1.60;;
15039;SDS011;7617;47.366;8.558;2024-02-26T13:42:38;1.33;;;1.23;;
15039;SDS011;7617;47.366;8.558;2024-02-26T13:45:07;3.05;;;1.70;;
15039;SDS011;7617;47.366;8.558;2024-02-26T13:47:37;2.45;;;1.40;;
15039;SDS011;7617;47.366;8.558;2024-02-26T13:50:07;1.83;;;1.50;;
15039;SDS011;7617;47.366;8.558;2024-02-26T13:52:37;2.80;;;1.40;;
15039;SDS011;7617;47.366;8.558;2024-02-26T13:55:05;2.20;;;1.50;;
15039;SDS011;7617;47.366;8.558;2024-02-26T13:57:34;2.13;;;1.90;;
15039;SDS011;7617;47.366;8.558;2024-02-26T14:00:02;2.47;;;1.83;;
15039;SDS011;7617;47.366;8.558;2024-02-26T14:02:37;2.28;;;1.90;;
15039;SDS011;7617;47.366;8.558;2024-02-26T14:05:06;2.35;;;1.73;;
15039;SDS011;7617;47.366;8.558;2024-02-26T14:07:34;2.83;;;1.75;;
15039;SDS011;7617;47.366;8.558;2024-02-26T14:10:05;3.90;;;1.70;;
15039;SDS011;7617;47.366;8.558;2024-02-26T14:12:34;2.05;;;1.75;;
15039;SDS011;7617;47.366;8.558;2024-02-26T14:15:02;2.53;;;2.13;;
15039;SDS011;7617;47.366;8.558;2024-02-26T14:17:31;2.05;;;1.85;;
15039;SDS011;7617;47.366;8.558;2024-02-26T14:20:00;4.68;;;2.00;;
15039;SDS011;7617;47.366;8.558;2024-02-26T14:22:33;3.78;;;2.10;;
15039;SDS011;7617;47.366;8.558;2024-02-26T14:25:02;3.40;;;2.17;;
15039;SDS011;7617;47.366;8.558;2024-02-26T14:27:31;3.58;;;2.05;;
15039;SDS011;7617;47.366;8.558;2024-02-26T14:29:59;2.00;;;1.80;;
15039;SDS011;7617;47.366;8.558;2024-02-26T14:32:28;3.15;;;2.30;;
15039;SDS011;7617;47.366;8.558;2024-02-26T14:35:01;2.50;;;1.98;;
15039;SDS011;7617;47.366;8.558;2024-02-26T14:37:29;2.78;;;2.30;;
15039;SDS011;7617;47.366;8.558;2024-02-26T14:39:58;2.28;;;2.08;;
15039;SDS011;7617;47.366;8.558;2024-02-26T14:42:26;2.40;;;2.20;;
15039;SDS011;7617;47.366;8.558;2024-02-26T14:44:56;2.72;;;2.03;;
15039;SDS011;7617;47.366;8.558;2024-02-26T14:47:25;3.67;;;2.55;;
15039;SDS011;7617;47.366;8.558;2024-02-26T14:49:53;3.22;;;1.88;;
15039;SDS011;7617;47.366;8.558;2024-02-26T14:52:22;3.30;;;2.10;;
15039;SDS011;7617;47.366;8.558;2024-02-26T14:54:50;4.88;;;2.00;;
15039;SDS011;7617;47.366;8.558;2024-02-26T14:57:19;2.22;;;2.03;;
15039;SDS011;7617;47.366;8.558;2024-02-26T14:59:47;2.00;;;1.60;;
15039;SDS011;7617;47.366;8.558;2024-02-26T15:02:18;1.70;;;1.60;;
15039;SDS011;7617;47.366;8.558;2024-02-26T15:04:46;2.33;;;2.13;;
15039;SDS011;7617;47.366;8.558;2024-02-26T15:07:15;3.30;;;1.88;;
15039;SDS011;7617;47.366;8.558;2024-02-26T15:09:46;3.30;;;1.80;;
15039;SDS011;7617;47.366;8.558;2024-02-26T15:12:14;2.90;;;1.73;;